עמוד ראשי
METAR-TAF:

METAR-TAF

שדות תעופה :

Los Mochis, מקסיקו

קו רוחב: 25-41N, קו אורך: 109-05W, גובה: 4מטר

תצפית מזג אוויר נוכחית

הדו"ח נערך לפני 6 שעות ו 8דקות, בשעה 04:42 UTC
רוח 11קשר מכיוון דרום-מזרח
טמפרטורת 28 צלסיוס
לחות 74%
לחץ 1009 hPa
ראות: 16.1קילומטר
שמיים נקיים

METAR: MMLM 150442Z 14011KT 10SM SKC 28/23 A2981

זמן: 04:50 (10:50 UTC)

תחזית

הדו"ח נערך לפני 5 שעות ו 11דקות, בשעה 05:39 UTC
תחזית בתוקף מ 15 ב 06 UTC עד 16 ב 06 UTC
רוח 10קשר מכיוון דרום/דרום-מזרח
ראות: 10קילומטר
שמיים נקיים
מ 15 ב 1000UTC
רוח 10קשר מכיוון מזרח/דרום-מזרח
ראות: 10קילומטר
עננים פזורים בגובה 1500רגל
זמנית מ -
15 ב 11 UTC עד 15 ב 15 UTC
ראות: 6.4קילומטר
עננים בינוניים בגובה 1500רגל
אובך
מ 15 ב 1800UTC
רוח 15קשר מכיוון דרום
ראות: 10קילומטר
שמיים נקיים
מ 16 ב 0000UTC
רוח 10קשר מכיוון דרום/דרום-מערב
ראות: 10קילומטר
שמיים נקיים

TAF: MMLM 150539Z 1506/1606 16010KT P6SM SKC FM151000 12010KT P6SM SCT015 TEMPO 1511/1515 4SM HZ BKN015 FM151800 18015KT P6SM SKC FM160000 200010KT P6SM SKC

תצפיות ותחזיות מזג אוויר לגבי יותר מ- 4,000 שדות תעופה ברחבי העולם. דוחות METAR ו- TAF.

התחנות הזמינות מסומנות בנקודות צהובות ואדומות על גבי המפה.

העבר את העכבר לנקודה הצבעונית על מנת לראות את שם התחנה.

לאחר מכן, לחץ כדי לראות את תוכן ואת תחזיות מזג האוויר.

כדי לשנות את המפה: לחץ על הכפתורים הירוקים עם הפלוס השחור כדי להתקרב; על הכפתור הירוק עם המקף כדי להתרחק; או בחיצים הירוקים למפות סמוכות.


METAR-TAF: